Home PIREPS Pireps

Flight SAB3712

  • Submitted By: Vincent Fourni
  • Departure Airport: Bilbao / Sondica (LEBB)
  • Arrival Airport: Bruxelles National (EBBR)
  • Aircraft: B737-500 (OO-SAB)
  • Flight Time: 02.06
  • Date Submitted: 03/11/2018
  • Status: Accepted
Flight Details
Gross Revenue:
(122 load / € 0.00 per unit
€ 0.00
Fuel Cost:
(5302 fuel used @ 5.1 / unit)
€ 27,040.20

Additional Log Information:

View Log

Aircraft Used in flight is PMDG 737-800NGX Brussels Airlines Winglets
16:54 Brakes are On
17:01 Brakes are Released
17:03 Brakes are On
17:05 Brakes are Released
17:10 You Took off @ 167 Knots and Flaps at Position 3
Departure Weather
LEBB 031530Z 07004KT 020V110 CAVOK 16/07 Q1022 NOSIGrn
17:10 Landing Gear Up @ 177 Knots and 370 Feet
17:13 Below 10000 feet you are not allowed to go over 250 knots
17:14 Above FL100 you need to switch of the landing lights
18:56 Landing Gear Down @ 184 Knots and 2930 Feet
18:59 You Landed @ 140 Knots and with -100 Vertical Speed
Arrival Weather
EBBR 031720Z 13003KT CAVOK 06/02 Q1024 NOSIGrn
18:59 Paused
19:00 Unpaused
19:00 Paused
19:00 Unpaused
19:00 Paused
19:04 Unpaused
19:04 Paused
19:04 Unpaused
19:04 Paused
19:04 Unpaused
19:04 Brakes are On
19:06 Brussels Bel-Track1.0.1.2

Route Map

Corporate About Us Our Team Vacancies Information Fleet Route Network Rules and Regulations Operations Flight Schedules Event Center Tours Partners IVAO Vatsim Acars dev FSCB

fb Users Online No pilots online!
0 Pilot(s) and 114 Guest(s) Online
CMS by phpVMS - Design by Crazycreatives.com - Copyright © 2020 - Brussels Airlines Virtual